sensor_id;sensor_type;location;lat;lon;timestamp;pressure;altitude;pressure_sealevel;temperature;humidity
5877;BME280;2964;42.144;24.730;2022-12-18T00:01:24;144084.94;;;10.04;100.00
5877;BME280;2964;42.144;24.730;2022-12-18T00:03:53;144081.16;;;10.03;100.00
5877;BME280;2964;42.144;24.730;2022-12-18T00:06:21;144052.31;;;9.91;100.00
5877;BME280;2964;42.144;24.730;2022-12-18T00:08:48;144039.75;;;9.86;100.00
5877;BME280;2964;42.144;24.730;2022-12-18T00:11:19;144041.00;;;9.86;100.00
5877;BME280;2964;42.144;24.730;2022-12-18T00:13:46;144057.34;;;9.93;100.00
5877;BME280;2964;42.144;24.730;2022-12-18T00:16:15;144030.97;;;9.82;100.00
5877;BME280;2964;42.144;24.730;2022-12-18T00:18:43;144013.38;;;9.75;100.00
5877;BME280;2964;42.144;24.730;2022-12-18T00:21:11;144023.47;;;9.79;100.00
5877;BME280;2964;42.144;24.730;2022-12-18T00:23:40;144030.97;;;9.82;100.00
5877;BME280;2964;42.144;24.730;2022-12-18T00:26:10;144023.47;;;9.79;100.00
5877;BME280;2964;42.144;24.730;2022-12-18T00:28:41;144023.47;;;9.79;100.00
5877;BME280;2964;42.144;24.730;2022-12-18T00:31:11;144041.00;;;9.86;100.00
5877;BME280;2964;42.144;24.730;2022-12-18T00:33:38;144028.47;;;9.81;100.00
5877;BME280;2964;42.144;24.730;2022-12-18T00:36:06;144030.97;;;9.82;100.00
5877;BME280;2964;42.144;24.730;2022-12-18T00:38:33;143998.34;;;9.69;100.00
5877;BME280;2964;42.144;24.730;2022-12-18T00:41:00;143968.19;;;9.57;100.00
5877;BME280;2964;42.144;24.730;2022-12-18T00:43:27;143892.94;;;9.26;100.00
5877;BME280;2964;42.144;24.730;2022-12-18T00:45:54;143987.00;;;9.64;100.00
5877;BME280;2964;42.144;24.730;2022-12-18T00:48:21;143975.75;;;9.60;100.00
5877;BME280;2964;42.144;24.730;2022-12-18T00:50:48;143989.53;;;9.65;100.00
5877;BME280;2964;42.144;24.730;2022-12-18T00:53:15;143974.50;;;9.59;100.00
5877;BME280;2964;42.144;24.730;2022-12-18T00:55:42;143968.19;;;9.57;100.00
5877;BME280;2964;42.144;24.730;2022-12-18T00:58:10;144051.06;;;9.91;100.00
5877;BME280;2964;42.144;24.730;2022-12-18T01:00:37;144028.47;;;9.81;100.00
5877;BME280;2964;42.144;24.730;2022-12-18T01:03:06;144041.00;;;9.86;100.00
5877;BME280;2964;42.144;24.730;2022-12-18T01:05:33;143925.53;;;9.39;100.00
5877;BME280;2964;42.144;24.730;2022-12-18T01:07:59;144004.59;;;9.72;100.00
5877;BME280;2964;42.144;24.730;2022-12-18T01:10:26;143987.00;;;9.64;100.00
5877;BME280;2964;42.144;24.730;2022-12-18T01:12:53;144005.88;;;9.72;100.00
5877;BME280;2964;42.144;24.730;2022-12-18T01:15:20;144005.88;;;9.72;100.00
5877;BME280;2964;42.144;24.730;2022-12-18T01:17:46;144035.97;;;9.84;100.00
5877;BME280;2964;42.144;24.730;2022-12-18T01:20:14;143995.81;;;9.68;100.00
5877;BME280;2964;42.144;24.730;2022-12-18T01:22:41;143909.22;;;9.33;100.00
5877;BME280;2964;42.144;24.730;2022-12-18T01:25:08;143928.03;;;9.40;100.00
5877;BME280;2964;42.144;24.730;2022-12-18T01:27:35;143940.59;;;9.45;100.00
5877;BME280;2964;42.144;24.730;2022-12-18T01:30:02;143940.59;;;9.45;100.00
5877;BME280;2964;42.144;24.730;2022-12-18T01:32:29;143930.56;;;9.41;100.00
5877;BME280;2964;42.144;24.730;2022-12-18T01:34:56;143870.34;;;9.17;100.00
5877;BME280;2964;42.144;24.730;2022-12-18T01:37:24;143907.97;;;9.32;100.00
5877;BME280;2964;42.144;24.730;2022-12-18T01:39:52;143933.03;;;9.42;100.00
5877;BME280;2964;42.144;24.730;2022-12-18T01:42:19;143973.22;;;9.59;100.00
5877;BME280;2964;42.144;24.730;2022-12-18T01:44:59;143920.53;;;9.37;100.00
5877;BME280;2964;42.144;24.730;2022-12-18T01:47:30;143889.16;;;9.24;100.00
5877;BME280;2964;42.144;24.730;2022-12-18T01:50:00;143890.41;;;9.25;100.00
5877;BME280;2964;42.144;24.730;2022-12-18T01:52:31;143910.47;;;9.33;100.00
5877;BME280;2964;42.144;24.730;2022-12-18T01:54:59;143881.63;;;9.21;100.00
5877;BME280;2964;42.144;24.730;2022-12-18T01:57:28;143875.38;;;9.19;100.00
5877;BME280;2964;42.144;24.730;2022-12-18T01:59:59;143857.78;;;9.12;100.00
5877;BME280;2964;42.144;24.730;2022-12-18T02:02:27;143864.03;;;9.14;100.00
5877;BME280;2964;42.144;24.730;2022-12-18T02:04:54;143865.28;;;9.15;100.00
5877;BME280;2964;42.144;24.730;2022-12-18T02:07:26;143890.41;;;9.25;100.00
5877;BME280;2964;42.144;24.730;2022-12-18T02:10:00;143923.00;;;9.38;100.00
5877;BME280;2964;42.144;24.730;2022-12-18T02:12:36;143895.41;;;9.27;100.00
5877;BME280;2964;42.144;24.730;2022-12-18T02:15:12;143919.25;;;9.37;100.00
5877;BME280;2964;42.144;24.730;2022-12-18T02:17:43;143933.03;;;9.42;100.00
5877;BME280;2964;42.144;24.730;2022-12-18T02:20:16;143949.38;;;9.49;100.00
5877;BME280;2964;42.144;24.730;2022-12-18T02:22:55;143982.00;;;9.62;100.00
5877;BME280;2964;42.144;24.730;2022-12-18T02:25:42;143984.53;;;9.63;100.00
5877;BME280;2964;42.144;24.730;2022-12-18T02:28:15;143990.78;;;9.66;100.00
5877;BME280;2964;42.144;24.730;2022-12-18T02:30:45;143970.72;;;9.58;100.00
5877;BME280;2964;42.144;24.730;2022-12-18T02:33:14;144023.47;;;9.79;100.00
5877;BME280;2964;42.144;24.730;2022-12-18T02:35:43;143973.22;;;9.59;100.00
5877;BME280;2964;42.144;24.730;2022-12-18T02:38:11;143973.22;;;9.59;100.00
5877;BME280;2964;42.144;24.730;2022-12-18T02:40:40;143978.28;;;9.61;100.00
5877;BME280;2964;42.144;24.730;2022-12-18T02:43:09;143998.34;;;9.69;100.00
5877;BME280;2964;42.144;24.730;2022-12-18T02:45:46;143980.75;;;9.62;100.00
5877;BME280;2964;42.144;24.730;2022-12-18T02:48:13;143975.75;;;9.60;100.00
5877;BME280;2964;42.144;24.730;2022-12-18T02:50:45;143960.69;;;9.54;100.00
5877;BME280;2964;42.144;24.730;2022-12-18T02:53:19;144009.59;;;9.74;100.00
5877;BME280;2964;42.144;24.730;2022-12-18T02:55:58;144028.47;;;9.81;100.00
5877;BME280;2964;42.144;24.730;2022-12-18T02:58:32;144072.38;;;9.99;100.00
5877;BME280;2964;42.144;24.730;2022-12-18T03:01:09;144052.31;;;9.91;100.00
5877;BME280;2964;42.144;24.730;2022-12-18T03:03:40;144073.66;;;10.00;100.00
5877;BME280;2964;42.144;24.730;2022-12-18T03:06:11;144042.28;;;9.87;100.00
5877;BME280;2964;42.144;24.730;2022-12-18T03:08:43;143992.06;;;9.66;100.00
5877;BME280;2964;42.144;24.730;2022-12-18T03:11:12;144002.09;;;9.71;100.00
5877;BME280;2964;42.144;24.730;2022-12-18T03:13:43;143985.78;;;9.64;100.00
5877;BME280;2964;42.144;24.730;2022-12-18T03:16:16;143958.16;;;9.53;100.00
5877;BME280;2964;42.144;24.730;2022-12-18T03:18:47;143964.44;;;9.55;100.00
5877;BME280;2964;42.144;24.730;2022-12-18T03:21:21;143964.44;;;9.55;100.00
5877;BME280;2964;42.144;24.730;2022-12-18T03:23:50;143979.50;;;9.61;100.00
5877;BME280;2964;42.144;24.730;2022-12-18T03:26:21;143963.19;;;9.55;100.00
5877;BME280;2964;42.144;24.730;2022-12-18T03:28:51;144014.66;;;9.76;100.00
5877;BME280;2964;42.144;24.730;2022-12-18T03:31:23;143987.00;;;9.64;100.00
5877;BME280;2964;42.144;24.730;2022-12-18T03:33:52;143965.72;;;9.56;100.00
5877;BME280;2964;42.144;24.730;2022-12-18T03:36:19;143990.78;;;9.66;100.00
5877;BME280;2964;42.144;24.730;2022-12-18T03:38:46;143961.94;;;9.54;100.00
5877;BME280;2964;42.144;24.730;2022-12-18T03:41:18;144015.91;;;9.76;100.00
5877;BME280;2964;42.144;24.730;2022-12-18T03:43:51;144041.00;;;9.86;100.00
5877;BME280;2964;42.144;24.730;2022-12-18T03:46:26;144053.56;;;9.92;100.00
5877;BME280;2964;42.144;24.730;2022-12-18T03:48:59;144083.69;;;10.04;100.00
5877;BME280;2964;42.144;24.730;2022-12-18T03:51:35;144022.16;;;9.79;100.00
5877;BME280;2964;42.144;24.730;2022-12-18T03:54:05;144018.41;;;9.77;100.00
5877;BME280;2964;42.144;24.730;2022-12-18T03:56:36;144058.56;;;9.94;100.00
5877;BME280;2964;42.144;24.730;2022-12-18T03:59:05;144000.88;;;9.70;100.00
5877;BME280;2964;42.144;24.730;2022-12-18T04:01:37;144053.56;;;9.92;100.00
5877;BME280;2964;42.144;24.730;2022-12-18T04:04:06;144015.91;;;9.76;100.00
5877;BME280;2964;42.144;24.730;2022-12-18T04:06:35;143995.81;;;9.68;100.00
5877;BME280;2964;42.144;24.730;2022-12-18T04:09:02;143987.00;;;9.64;100.00
5877;BME280;2964;42.144;24.730;2022-12-18T04:11:30;144013.38;;;9.75;100.00
5877;BME280;2964;42.144;24.730;2022-12-18T04:13:57;144017.16;;;9.77;100.00
5877;BME280;2964;42.144;24.730;2022-12-18T04:16:24;143984.53;;;9.63;100.00
5877;BME280;2964;42.144;24.730;2022-12-18T04:18:52;143999.56;;;9.70;100.00
5877;BME280;2964;42.144;24.730;2022-12-18T04:21:20;143958.16;;;9.53;100.00
5877;BME280;2964;42.144;24.730;2022-12-18T04:23:48;144015.91;;;9.76;100.00
5877;BME280;2964;42.144;24.730;2022-12-18T04:26:14;144000.88;;;9.70;100.00
5877;BME280;2964;42.144;24.730;2022-12-18T04:28:41;143936.81;;;9.44;100.00
5877;BME280;2964;42.144;24.730;2022-12-18T04:31:07;144028.47;;;9.81;100.00
5877;BME280;2964;42.144;24.730;2022-12-18T04:33:34;143990.78;;;9.66;100.00
5877;BME280;2964;42.144;24.730;2022-12-18T04:36:02;143965.72;;;9.56;100.00
5877;BME280;2964;42.144;24.730;2022-12-18T04:38:29;143969.47;;;9.57;100.00
5877;BME280;2964;42.144;24.730;2022-12-18T04:40:56;143909.22;;;9.33;100.00
5877;BME280;2964;42.144;24.730;2022-12-18T04:43:22;143925.53;;;9.39;100.00
5877;BME280;2964;42.144;24.730;2022-12-18T04:45:49;143910.47;;;9.33;100.00
5877;BME280;2964;42.144;24.730;2022-12-18T04:48:16;143899.19;;;9.28;100.00
5877;BME280;2964;42.144;24.730;2022-12-18T04:50:42;143926.78;;;9.40;100.00
5877;BME280;2964;42.144;24.730;2022-12-18T04:53:10;143874.06;;;9.18;100.00
5877;BME280;2964;42.144;24.730;2022-12-18T04:55:37;143852.78;;;9.10;100.00
5877;BME280;2964;42.144;24.730;2022-12-18T04:58:04;143877.84;;;9.20;100.00
5877;BME280;2964;42.144;24.730;2022-12-18T05:00:30;143874.06;;;9.18;100.00
5877;BME280;2964;42.144;24.730;2022-12-18T05:02:57;143855.25;;;9.11;100.00
5877;BME280;2964;42.144;24.730;2022-12-18T05:05:24;143859.03;;;9.12;100.00
5877;BME280;2964;42.144;24.730;2022-12-18T05:07:50;143803.84;;;8.89;100.00
5877;BME280;2964;42.144;24.730;2022-12-18T05:10:18;143890.41;;;9.25;100.00
5877;BME280;2964;42.144;24.730;2022-12-18T05:12:45;143875.38;;;9.19;100.00
5877;BME280;2964;42.144;24.730;2022-12-18T05:15:28;143864.03;;;9.14;100.00
5877;BME280;2964;42.144;24.730;2022-12-18T05:17:55;143904.22;;;9.31;100.00
5877;BME280;2964;42.144;24.730;2022-12-18T05:20:22;143875.38;;;9.19;100.00
5877;BME280;2964;42.144;24.730;2022-12-18T05:22:50;143867.81;;;9.16;100.00
5877;BME280;2964;42.144;24.730;2022-12-18T05:25:17;143895.41;;;9.27;100.00
5877;BME280;2964;42.144;24.730;2022-12-18T05:27:45;143913.00;;;9.34;100.00
5877;BME280;2964;42.144;24.730;2022-12-18T05:30:12;143914.22;;;9.35;100.00
5877;BME280;2964;42.144;24.730;2022-12-18T05:32:40;143855.25;;;9.11;100.00
5877;BME280;2964;42.144;24.730;2022-12-18T05:35:08;143895.41;;;9.27;100.00
5877;BME280;2964;42.144;24.730;2022-12-18T05:37:35;143939.34;;;9.45;100.00
5877;BME280;2964;42.144;24.730;2022-12-18T05:40:03;143894.19;;;9.26;100.00
5877;BME280;2964;42.144;24.730;2022-12-18T05:42:30;143869.06;;;9.16;100.00
5877;BME280;2964;42.144;24.730;2022-12-18T05:44:58;143772.50;;;8.77;100.00
5877;BME280;2964;42.144;24.730;2022-12-18T05:47:26;143916.75;;;9.36;100.00
5877;BME280;2964;42.144;24.730;2022-12-18T05:49:52;143960.69;;;9.54;100.00
5877;BME280;2964;42.144;24.730;2022-12-18T05:52:19;143938.09;;;9.44;100.00
5877;BME280;2964;42.144;24.730;2022-12-18T05:54:46;143845.25;;;9.06;100.00
5877;BME280;2964;42.144;24.730;2022-12-18T05:57:12;143864.03;;;9.14;100.00
5877;BME280;2964;42.144;24.730;2022-12-18T05:59:39;143930.56;;;9.41;100.00
5877;BME280;2964;42.144;24.730;2022-12-18T06:02:07;143945.59;;;9.47;100.00
5877;BME280;2964;42.144;24.730;2022-12-18T06:04:34;143907.97;;;9.32;100.00
5877;BME280;2964;42.144;24.730;2022-12-18T06:07:00;143884.16;;;9.22;100.00
5877;BME280;2964;42.144;24.730;2022-12-18T06:09:30;143963.19;;;9.55;100.00
5877;BME280;2964;42.144;24.730;2022-12-18T06:11:57;143943.13;;;9.46;100.00
5877;BME280;2964;42.144;24.730;2022-12-18T06:14:23;143988.31;;;9.65;100.00
5877;BME280;2964;42.144;24.730;2022-12-18T06:16:50;144043.53;;;9.88;100.00
5877;BME280;2964;42.144;24.730;2022-12-18T06:19:19;143990.78;;;9.66;100.00
5877;BME280;2964;42.144;24.730;2022-12-18T06:21:45;144048.53;;;9.90;100.00
5877;BME280;2964;42.144;24.730;2022-12-18T06:24:12;144037.25;;;9.85;100.00
5877;BME280;2964;42.144;24.730;2022-12-18T06:26:39;144013.38;;;9.75;100.00
5877;BME280;2964;42.144;24.730;2022-12-18T06:29:06;144013.38;;;9.75;100.00
5877;BME280;2964;42.144;24.730;2022-12-18T06:31:32;144039.75;;;9.86;100.00
5877;BME280;2964;42.144;24.730;2022-12-18T06:34:02;144037.25;;;9.85;100.00
5877;BME280;2964;42.144;24.730;2022-12-18T06:36:30;144052.31;;;9.91;100.00
5877;BME280;2964;42.144;24.730;2022-12-18T06:38:58;144053.56;;;9.92;100.00
5877;BME280;2964;42.144;24.730;2022-12-18T06:41:24;144086.19;;;10.05;100.00
5877;BME280;2964;42.144;24.730;2022-12-18T06:43:51;144116.34;;;10.17;100.00
5877;BME280;2964;42.144;24.730;2022-12-18T06:46:18;144089.97;;;10.07;100.00
5877;BME280;2964;42.144;24.730;2022-12-18T06:48:47;144076.16;;;10.01;100.00
5877;BME280;2964;42.144;24.730;2022-12-18T06:51:17;144096.28;;;10.09;100.00
5877;BME280;2964;42.144;24.730;2022-12-18T06:53:45;144073.66;;;10.00;100.00
5877;BME280;2964;42.144;24.730;2022-12-18T06:56:12;144066.13;;;9.97;100.00
5877;BME280;2964;42.144;24.730;2022-12-18T06:58:39;144058.56;;;9.94;100.00
5877;BME280;2964;42.144;24.730;2022-12-18T07:01:08;144062.34;;;9.95;100.00
5877;BME280;2964;42.144;24.730;2022-12-18T07:03:35;144042.28;;;9.87;100.00
5877;BME280;2964;42.144;24.730;2022-12-18T07:06:02;144035.97;;;9.84;100.00
5877;BME280;2964;42.144;24.730;2022-12-18T07:08:30;144039.75;;;9.86;100.00
5877;BME280;2964;42.144;24.730;2022-12-18T07:10:59;144101.28;;;10.11;100.00
5877;BME280;2964;42.144;24.730;2022-12-18T07:13:25;144106.31;;;10.13;100.00
5877;BME280;2964;42.144;24.730;2022-12-18T07:15:52;144089.97;;;10.07;100.00
5877;BME280;2964;42.144;24.730;2022-12-18T07:18:19;144097.50;;;10.10;100.00
5877;BME280;2964;42.144;24.730;2022-12-18T07:20:45;144092.50;;;10.08;100.00
5877;BME280;2964;42.144;24.730;2022-12-18T07:23:12;144106.31;;;10.13;100.00
5877;BME280;2964;42.144;24.730;2022-12-18T07:25:39;144120.13;;;10.19;100.00
5877;BME280;2964;42.144;24.730;2022-12-18T07:28:07;144106.31;;;10.13;100.00
5877;BME280;2964;42.144;24.730;2022-12-18T07:31:07;143805.09;;;8.90;100.00
5877;BME280;2964;42.144;24.730;2022-12-18T07:33:40;143837.69;;;9.03;100.00
5877;BME280;2964;42.144;24.730;2022-12-18T07:36:08;144111.31;;;10.15;100.00
5877;BME280;2964;42.144;24.730;2022-12-18T07:38:36;144076.16;;;10.01;100.00
5877;BME280;2964;42.144;24.730;2022-12-18T07:41:04;144165.38;;;10.37;100.00
5877;BME280;2964;42.144;24.730;2022-12-18T07:43:34;144108.78;;;10.14;100.00
5877;BME280;2964;42.144;24.730;2022-12-18T07:46:01;144083.69;;;10.04;100.00
5877;BME280;2964;42.144;24.730;2022-12-18T07:48:27;144053.56;;;9.92;100.00
5877;BME280;2964;42.144;24.730;2022-12-18T07:50:57;144066.13;;;9.97;100.00
5877;BME280;2964;42.144;24.730;2022-12-18T07:53:24;144052.31;;;9.91;100.00
5877;BME280;2964;42.144;24.730;2022-12-18T07:55:55;144115.09;;;10.17;100.00
5877;BME280;2964;42.144;24.730;2022-12-18T07:58:21;144138.94;;;10.27;100.00
5877;BME280;2964;42.144;24.730;2022-12-18T08:00:49;144115.09;;;10.17;100.00
5877;BME280;2964;42.144;24.730;2022-12-18T08:03:17;144110.06;;;10.15;100.00
5877;BME280;2964;42.144;24.730;2022-12-18T08:05:44;144143.97;;;10.29;100.00
5877;BME280;2964;42.144;24.730;2022-12-18T08:08:11;144161.59;;;10.36;100.00
5877;BME280;2964;42.144;24.730;2022-12-18T08:10:38;144145.25;;;10.29;100.00
5877;BME280;2964;42.144;24.730;2022-12-18T08:13:04;144166.59;;;10.38;100.00
5877;BME280;2964;42.144;24.730;2022-12-18T08:15:31;144110.06;;;10.15;100.00
5877;BME280;2964;42.144;24.730;2022-12-18T08:17:59;144166.59;;;10.38;100.00
5877;BME280;2964;42.144;24.730;2022-12-18T08:20:26;144169.16;;;10.39;100.00
5877;BME280;2964;42.144;24.730;2022-12-18T08:22:53;144191.75;;;10.48;100.00
5877;BME280;2964;42.144;24.730;2022-12-18T08:25:20;144128.91;;;10.22;100.00
5877;BME280;2964;42.144;24.730;2022-12-18T08:27:47;144149.03;;;10.31;100.00
5877;BME280;2964;42.144;24.730;2022-12-18T08:30:13;144214.34;;;10.57;100.00
5877;BME280;2964;42.144;24.730;2022-12-18T08:32:40;144240.75;;;10.68;100.00
5877;BME280;2964;42.144;24.730;2022-12-18T08:35:09;144244.53;;;10.70;100.00
5877;BME280;2964;42.144;24.730;2022-12-18T08:37:39;144282.19;;;10.85;99.47
5877;BME280;2964;42.144;24.730;2022-12-18T08:40:08;144309.81;;;10.96;98.03
5877;BME280;2964;42.144;24.730;2022-12-18T08:42:35;144321.13;;;11.01;98.07
5877;BME280;2964;42.144;24.730;2022-12-18T08:45:20;144273.41;;;10.81;99.44
5877;BME280;2964;42.144;24.730;2022-12-18T08:47:47;144274.63;;;10.82;98.37
5877;BME280;2964;42.144;24.730;2022-12-18T08:50:15;144260.81;;;10.76;98.16
5877;BME280;2964;42.144;24.730;2022-12-18T08:52:43;144297.25;;;10.91;98.62
5877;BME280;2964;42.144;24.730;2022-12-18T08:55:10;144264.59;;;10.78;98.41
5877;BME280;2964;42.144;24.730;2022-12-18T08:57:36;144243.22;;;10.69;99.26
5877;BME280;2964;42.144;24.730;2022-12-18T09:00:04;144299.78;;;10.92;98.81
5877;BME280;2964;42.144;24.730;2022-12-18T09:02:31;144244.53;;;10.70;99.24
5877;BME280;2964;42.144;24.730;2022-12-18T09:04:58;144248.25;;;10.71;99.47
5877;BME280;2964;42.144;24.730;2022-12-18T09:07:25;144332.44;;;11.06;96.34
5877;BME280;2964;42.144;24.730;2022-12-18T09:09:52;144327.44;;;11.04;96.52
5877;BME280;2964;42.144;24.730;2022-12-18T09:12:19;144350.03;;;11.13;95.79
5877;BME280;2964;42.144;24.730;2022-12-18T09:14:46;144346.25;;;11.11;94.36
5877;BME280;2964;42.144;24.730;2022-12-18T09:17:13;144293.47;;;10.90;94.67
5877;BME280;2964;42.144;24.730;2022-12-18T09:19:39;144258.34;;;10.75;95.45
5877;BME280;2964;42.144;24.730;2022-12-18T09:22:06;144284.69;;;10.86;95.92
5877;BME280;2964;42.144;24.730;2022-12-18T09:24:34;144283.44;;;10.86;95.62
5877;BME280;2964;42.144;24.730;2022-12-18T09:27:01;144263.34;;;10.77;96.75
5877;BME280;2964;42.144;24.730;2022-12-18T09:29:27;144275.88;;;10.82;96.98
5877;BME280;2964;42.144;24.730;2022-12-18T09:31:54;144350.03;;;11.13;95.17
5877;BME280;2964;42.144;24.730;2022-12-18T09:34:21;144284.69;;;10.86;95.41
5877;BME280;2964;42.144;24.730;2022-12-18T09:36:49;144272.16;;;10.81;96.62
5877;BME280;2964;42.144;24.730;2022-12-18T09:39:16;144297.25;;;10.91;96.50
5877;BME280;2964;42.144;24.730;2022-12-18T09:41:46;144292.22;;;10.89;95.08
5877;BME280;2964;42.144;24.730;2022-12-18T09:44:24;144260.81;;;10.76;96.39
5877;BME280;2964;42.144;24.730;2022-12-18T09:46:57;144239.44;;;10.68;96.02
5877;BME280;2964;42.144;24.730;2022-12-18T09:49:27;144258.34;;;10.75;96.31
5877;BME280;2964;42.144;24.730;2022-12-18T09:51:58;144302.28;;;10.93;95.56
5877;BME280;2964;42.144;24.730;2022-12-18T09:54:31;144347.50;;;11.12;94.35
5877;BME280;2964;42.144;24.730;2022-12-18T09:57:00;144321.13;;;11.01;94.21
5877;BME280;2964;42.144;24.730;2022-12-18T09:59:30;144360.09;;;11.17;94.29
5877;BME280;2964;42.144;24.730;2022-12-18T10:01:58;144309.81;;;10.96;95.38
5877;BME280;2964;42.144;24.730;2022-12-18T10:04:32;144360.09;;;11.17;94.03
5877;BME280;2964;42.144;24.730;2022-12-18T10:07:03;144327.44;;;11.04;94.37
5877;BME280;2964;42.144;24.730;2022-12-18T10:09:37;144287.22;;;10.87;95.00
5877;BME280;2964;42.144;24.730;2022-12-18T10:12:12;144362.63;;;11.18;94.55
5877;BME280;2964;42.144;24.730;2022-12-18T10:14:47;144357.59;;;11.16;94.99
5877;BME280;2964;42.144;24.730;2022-12-18T10:17:23;144283.44;;;10.86;95.13
5877;BME280;2964;42.144;24.730;2022-12-18T10:19:56;144299.78;;;10.92;96.92
5877;BME280;2964;42.144;24.730;2022-12-18T10:22:39;144312.34;;;10.97;95.32
5877;BME280;2964;42.144;24.730;2022-12-18T10:25:17;144275.88;;;10.82;94.83
5877;BME280;2964;42.144;24.730;2022-12-18T10:27:47;144318.63;;;11.00;95.00
5877;BME280;2964;42.144;24.730;2022-12-18T10:30:16;144272.16;;;10.81;94.71
5877;BME280;2964;42.144;24.730;2022-12-18T10:32:43;144311.06;;;10.97;95.13
5877;BME280;2964;42.144;24.730;2022-12-18T10:35:17;144289.75;;;10.88;94.47
5877;BME280;2964;42.144;24.730;2022-12-18T10:37:59;144277.16;;;10.83;94.43
5877;BME280;2964;42.144;24.730;2022-12-18T10:40:26;144292.22;;;10.89;94.82
5877;BME280;2964;42.144;24.730;2022-12-18T10:43:09;144293.47;;;10.90;94.12
5877;BME280;2964;42.144;24.730;2022-12-18T10:45:37;144269.63;;;10.80;95.05
5877;BME280;2964;42.144;24.730;2022-12-18T10:48:04;144302.28;;;10.93;94.03
5877;BME280;2964;42.144;24.730;2022-12-18T10:50:32;144263.34;;;10.77;94.56
5877;BME280;2964;42.144;24.730;2022-12-18T10:53:01;144260.81;;;10.76;94.27
5877;BME280;2964;42.144;24.730;2022-12-18T10:55:32;144278.41;;;10.84;93.26
5877;BME280;2964;42.144;24.730;2022-12-18T10:58:24;144268.38;;;10.79;93.99
5877;BME280;2964;42.144;24.730;2022-12-18T11:01:07;144224.41;;;10.61;94.65
5877;BME280;2964;42.144;24.730;2022-12-18T11:03:36;144195.53;;;10.50;96.67
5877;BME280;2964;42.144;24.730;2022-12-18T11:06:06;144184.19;;;10.45;96.98
5877;BME280;2964;42.144;24.730;2022-12-18T11:08:33;144177.94;;;10.42;97.34
5877;BME280;2964;42.144;24.730;2022-12-18T11:11:00;144189.22;;;10.47;97.45
5877;BME280;2964;42.144;24.730;2022-12-18T11:13:29;144120.13;;;10.19;98.96
5877;BME280;2964;42.144;24.730;2022-12-18T11:15:57;144112.56;;;10.16;100.00
5877;BME280;2964;42.144;24.730;2022-12-18T11:18:27;144121.34;;;10.19;100.00
5877;BME280;2964;42.144;24.730;2022-12-18T11:20:56;144116.34;;;10.17;100.00
5877;BME280;2964;42.144;24.730;2022-12-18T11:23:24;144122.66;;;10.20;100.00
5877;BME280;2964;42.144;24.730;2022-12-18T11:25:53;144033.50;;;9.83;100.00
5877;BME280;2964;42.144;24.730;2022-12-18T11:28:35;143896.66;;;9.27;100.00
5877;BME280;2964;42.144;24.730;2022-12-18T11:31:15;144020.94;;;9.78;100.00
5877;BME280;2964;42.144;24.730;2022-12-18T11:33:46;143994.56;;;9.68;100.00
5877;BME280;2964;42.144;24.730;2022-12-18T11:36:16;143984.53;;;9.63;100.00
5877;BME280;2964;42.144;24.730;2022-12-18T11:38:44;144041.00;;;9.86;100.00
5877;BME280;2964;42.144;24.730;2022-12-18T11:41:19;144010.91;;;9.74;100.00
5877;BME280;2964;42.144;24.730;2022-12-18T11:43:54;144039.75;;;9.86;100.00
5877;BME280;2964;42.144;24.730;2022-12-18T11:46:27;143992.06;;;9.66;100.00
5877;BME280;2964;42.144;24.730;2022-12-18T11:49:00;144073.66;;;10.00;100.00
5877;BME280;2964;42.144;24.730;2022-12-18T11:51:38;144086.19;;;10.05;100.00
5877;BME280;2964;42.144;24.730;2022-12-18T11:54:12;144072.38;;;9.99;100.00
5877;BME280;2964;42.144;24.730;2022-12-18T11:56:43;144106.31;;;10.13;100.00
5877;BME280;2964;42.144;24.730;2022-12-18T11:59:23;144091.25;;;10.07;100.00
5877;BME280;2964;42.144;24.730;2022-12-18T12:02:00;144027.19;;;9.81;100.00
5877;BME280;2964;42.144;24.730;2022-12-18T12:05:02;144082.47;;;10.03;100.00
5877;BME280;2964;42.144;24.730;2022-12-18T12:07:40;144116.34;;;10.17;97.68
5877;BME280;2964;42.144;24.730;2022-12-18T12:10:18;144058.56;;;9.94;97.38
5877;BME280;2964;42.144;24.730;2022-12-18T12:13:00;144137.69;;;10.26;96.78
5877;BME280;2964;42.144;24.730;2022-12-18T12:15:34;144160.34;;;10.35;96.54
5877;BME280;2964;42.144;24.730;2022-12-18T12:18:08;144151.56;;;10.32;96.52
5877;BME280;2964;42.144;24.730;2022-12-18T12:20:47;144112.56;;;10.16;95.90
5877;BME280;2964;42.144;24.730;2022-12-18T12:23:30;144108.78;;;10.14;96.35
5877;BME280;2964;42.144;24.730;2022-12-18T12:26:04;144116.34;;;10.17;95.07
5877;BME280;2964;42.144;24.730;2022-12-18T12:28:48;144157.81;;;10.34;94.35
5877;BME280;2964;42.144;24.730;2022-12-18T12:31:28;144106.31;;;10.13;94.36
5877;BME280;2964;42.144;24.730;2022-12-18T12:34:07;144098.75;;;10.10;95.25
5877;BME280;2964;42.144;24.730;2022-12-18T12:36:42;144120.13;;;10.19;93.07
5877;BME280;2964;42.144;24.730;2022-12-18T12:39:17;144096.28;;;10.09;94.53
5877;BME280;2964;42.144;24.730;2022-12-18T12:41:46;144048.53;;;9.90;96.06
5877;BME280;2964;42.144;24.730;2022-12-18T12:44:32;144081.16;;;10.03;95.05
5877;BME280;2964;42.144;24.730;2022-12-18T12:47:14;144093.75;;;10.08;95.26
5877;BME280;2964;42.144;24.730;2022-12-18T12:49:45;144122.66;;;10.20;94.20
5877;BME280;2964;42.144;24.730;2022-12-18T12:52:16;144106.31;;;10.13;93.90
5877;BME280;2964;42.144;24.730;2022-12-18T12:54:45;144131.41;;;10.23;92.24
5877;BME280;2964;42.144;24.730;2022-12-18T12:57:17;144064.88;;;9.96;93.47
5877;BME280;2964;42.144;24.730;2022-12-18T12:59:52;144110.06;;;10.15;92.48
5877;BME280;2964;42.144;24.730;2022-12-18T13:02:31;144127.66;;;10.22;92.02
5877;BME280;2964;42.144;24.730;2022-12-18T13:05:08;144130.16;;;10.23;92.44
5877;BME280;2964;42.144;24.730;2022-12-18T13:07:44;144120.13;;;10.19;92.39
5877;BME280;2964;42.144;24.730;2022-12-18T13:10:31;144082.47;;;10.03;93.19
5877;BME280;2964;42.144;24.730;2022-12-18T13:13:00;144049.78;;;9.90;94.50